Time;durP1;ratioP1;P1;durP2;ratioP2;P2;SDS_P1;SDS_P2;PMS_P1;PMS_P2;Temp;Humidity;BMP_temperature;BMP_pressure;BME280_temperature;BME280_humidity;BME280_pressure;Samples;Min_cycle;Max_cycle;Signal;HPM_P1;HPM_P2
2022/07/27 00:00:58;;;;;;;3.00;1.65;;;;;;;;;;5089753;27;20258;-66
2022/07/27 00:03:26;;;;;;;1.80;1.70;;;;;;;;;;5087066;27;20614;-66
2022/07/27 00:05:53;;;;;;;2.72;1.55;;;;;;;;;;5083987;27;20708;-66
2022/07/27 00:08:22;;;;;;;2.67;1.48;;;;;;;;;;5115066;27;20223;-65
2022/07/27 00:10:51;;;;;;;4.10;1.90;;;;;;;;;;5083928;27;20312;-66
2022/07/27 00:13:18;;;;;;;5.10;2.17;;;;;;;;;;5089729;27;20208;-66
2022/07/27 00:15:45;;;;;;;2.72;1.60;;;;;;;;;;5088379;28;20591;-66
2022/07/27 00:18:13;;;;;;;3.15;1.40;;;;;;;;;;5086163;28;20991;-66
2022/07/27 00:20:40;;;;;;;3.45;2.15;;;;;;;;;;5088220;27;21048;-66
2022/07/27 00:23:08;;;;;;;3.47;1.52;;;;;;;;;;5103219;27;20196;-65
2022/07/27 00:25:37;;;;;;;2.70;1.55;;;;;;;;;;5094785;27;20211;-66
2022/07/27 00:28:05;;;;;;;3.28;1.98;;;;;;;;;;5079828;27;20228;-66
2022/07/27 00:30:32;;;;;;;3.53;1.67;;;;;;;;;;5083479;27;20265;-66
2022/07/27 00:32:59;;;;;;;1.77;1.67;;;;;;;;;;5082683;27;20270;-66
2022/07/27 00:35:27;;;;;;;2.13;1.50;;;;;;;;;;5080791;27;20724;-66
2022/07/27 00:37:54;;;;;;;1.70;1.60;;;;;;;;;;5119991;27;20243;-66
2022/07/27 00:40:22;;;;;;;2.67;2.28;;;;;;;;;;5086629;28;20227;-66
2022/07/27 00:42:49;;;;;;;2.83;2.15;;;;;;;;;;5092027;28;22349;-66
2022/07/27 00:45:17;;;;;;;15.48;8.27;;;;;;;;;;5075396;27;20220;-66
2022/07/27 00:47:44;;;;;;;4.00;2.90;;;;;;;;;;5098798;27;20277;-66
2022/07/27 00:50:11;;;;;;;2.80;1.75;;;;;;;;;;5116488;27;20278;-66
2022/07/27 00:52:40;;;;;;;3.75;3.10;;;;;;;;;;5118085;27;20211;-66
2022/07/27 00:55:08;;;;;;;3.25;2.28;;;;;;;;;;5077576;28;20224;-65
2022/07/27 00:57:35;;;;;;;1.73;1.52;;;;;;;;;;5099920;27;20262;-66
2022/07/27 01:00:22;;;;;;;1.63;1.52;;;;;;;;;;5079314;28;20253;-66
2022/07/27 01:02:50;;;;;;;1.65;1.55;;;;;;;;;;5109044;27;20201;-65
2022/07/27 01:05:18;;;;;;;2.67;1.83;;;;;;;;;;5086461;27;20230;-66
2022/07/27 01:07:47;;;;;;;3.88;1.73;;;;;;;;;;5093198;28;20220;-65
2022/07/27 01:10:14;;;;;;;1.92;1.83;;;;;;;;;;5097085;28;20204;-65
2022/07/27 01:12:42;;;;;;;3.65;1.85;;;;;;;;;;5083606;28;20262;-66
2022/07/27 01:15:09;;;;;;;1.70;1.60;;;;;;;;;;5078881;27;20309;-65
2022/07/27 01:17:37;;;;;;;2.72;1.55;;;;;;;;;;5082973;28;20234;-65
2022/07/27 01:20:04;;;;;;;1.92;1.50;;;;;;;;;;5083720;27;20278;-65
2022/07/27 01:22:32;;;;;;;1.58;1.48;;;;;;;;;;5077410;28;20216;-66
2022/07/27 01:24:59;;;;;;;2.33;1.50;;;;;;;;;;5084029;28;20235;-66
2022/07/27 01:27:26;;;;;;;2.40;1.60;;;;;;;;;;5102355;27;20224;-66
2022/07/27 01:29:54;;;;;;;1.77;1.67;;;;;;;;;;5080244;28;20763;-66
2022/07/27 01:32:21;;;;;;;3.05;1.50;;;;;;;;;;5071185;28;20276;-66
2022/07/27 01:34:49;;;;;;;2.20;1.58;;;;;;;;;;5073705;28;20228;-65
2022/07/27 01:37:16;;;;;;;5.00;1.73;;;;;;;;;;5110130;27;20258;-65
2022/07/27 01:39:43;;;;;;;2.63;1.80;;;;;;;;;;5082321;28;20211;-65
2022/07/27 01:42:11;;;;;;;1.70;1.60;;;;;;;;;;5075623;28;20209;-65
2022/07/27 01:44:38;;;;;;;2.57;1.90;;;;;;;;;;5085325;28;20698;-66
2022/07/27 01:47:06;;;;;;;2.00;1.80;;;;;;;;;;5081787;27;20227;-66
2022/07/27 01:49:40;;;;;;;9.73;6.27;;;;;;;;;;5081896;27;20215;-66
2022/07/27 01:52:08;;;;;;;4.87;2.00;;;;;;;;;;5078169;28;20212;-65
2022/07/27 01:54:35;;;;;;;3.43;1.70;;;;;;;;;;5081003;27;20227;-66
2022/07/27 01:57:03;;;;;;;2.30;2.10;;;;;;;;;;5088115;27;20224;-66
2022/07/27 01:59:30;;;;;;;3.10;1.80;;;;;;;;;;5080330;28;20204;-66
2022/07/27 02:01:57;;;;;;;2.27;2.07;;;;;;;;;;5083203;28;20212;-66
2022/07/27 02:04:25;;;;;;;3.47;2.90;;;;;;;;;;5082058;28;20285;-65
2022/07/27 02:06:52;;;;;;;6.83;3.47;;;;;;;;;;5077160;28;20277;-66
2022/07/27 02:09:20;;;;;;;3.20;2.00;;;;;;;;;;5098937;27;20200;-65
2022/07/27 02:14:33;;;;;;;5.07;2.00;;;;;;;;;;5097575;28;20657;-66
2022/07/27 02:17:00;;;;;;;2.50;2.10;;;;;;;;;;5081967;27;20219;-65
2022/07/27 02:19:28;;;;;;;3.77;2.10;;;;;;;;;;5079450;28;20216;-65
2022/07/27 02:21:56;;;;;;;3.33;2.00;;;;;;;;;;5075398;28;20295;-66
2022/07/27 02:24:23;;;;;;;2.07;1.97;;;;;;;;;;5096556;27;20213;-66
2022/07/27 02:26:50;;;;;;;3.47;1.90;;;;;;;;;;5082305;28;20549;-65
2022/07/27 02:29:18;;;;;;;2.93;1.90;;;;;;;;;;5079541;27;20212;-65
2022/07/27 02:31:45;;;;;;;1.90;1.80;;;;;;;;;;5082669;27;20296;-66
2022/07/27 02:34:13;;;;;;;3.13;2.30;;;;;;;;;;5079989;28;20238;-66
2022/07/27 02:36:40;;;;;;;2.87;2.07;;;;;;;;;;5077909;28;20247;-65
2022/07/27 02:39:08;;;;;;;3.10;2.03;;;;;;;;;;5073971;28;20197;-67
2022/07/27 02:41:36;;;;;;;3.35;2.00;;;;;;;;;;5088476;28;20227;-67
2022/07/27 02:44:03;;;;;;;3.70;2.20;;;;;;;;;;5111492;27;20679;-67
2022/07/27 02:46:30;;;;;;;2.40;2.13;;;;;;;;;;5079450;28;20266;-66
2022/07/27 02:48:58;;;;;;;2.53;2.10;;;;;;;;;;5082822;28;20643;-66
2022/07/27 02:51:25;;;;;;;4.53;2.17;;;;;;;;;;5112274;27;20212;-67
2022/07/27 02:53:53;;;;;;;2.30;1.97;;;;;;;;;;5075240;28;20204;-67
2022/07/27 02:56:20;;;;;;;2.90;2.60;;;;;;;;;;5078932;28;20231;-66
2022/07/27 02:58:53;;;;;;;2.50;2.30;;;;;;;;;;5076724;28;20220;-67
2022/07/27 03:01:22;;;;;;;4.83;2.43;;;;;;;;;;5107851;27;20207;-66
2022/07/27 03:03:49;;;;;;;2.30;2.10;;;;;;;;;;5078332;28;21100;-66
2022/07/27 03:06:17;;;;;;;2.40;2.20;;;;;;;;;;5075751;28;20207;-67
2022/07/27 03:08:44;;;;;;;3.23;2.30;;;;;;;;;;5083920;28;20204;-67
2022/07/27 03:11:11;;;;;;;3.87;2.63;;;;;;;;;;5087412;28;20208;-67
2022/07/27 03:13:39;;;;;;;4.40;2.43;;;;;;;;;;5096400;28;20209;-67
2022/07/27 03:16:06;;;;;;;3.23;2.90;;;;;;;;;;5082548;28;20230;-64
2022/07/27 03:18:34;;;;;;;2.87;2.57;;;;;;;;;;5077044;28;20196;-67
2022/07/27 03:21:02;;;;;;;3.53;2.73;;;;;;;;;;5074871;28;20200;-66
2022/07/27 03:23:30;;;;;;;5.90;2.83;;;;;;;;;;5074495;28;20209;-67
2022/07/27 03:26:00;;;;;;;3.00;2.33;;;;;;;;;;5088046;27;20204;-67
2022/07/27 03:28:27;;;;;;;6.57;3.23;;;;;;;;;;5081877;28;20213;-66
2022/07/27 03:30:55;;;;;;;2.53;2.13;;;;;;;;;;5079482;28;20209;-66
2022/07/27 03:33:22;;;;;;;4.83;2.60;;;;;;;;;;5076173;28;20658;-66
2022/07/27 03:35:49;;;;;;;3.07;2.67;;;;;;;;;;5078149;28;20235;-66
2022/07/27 03:38:17;;;;;;;3.43;2.27;;;;;;;;;;5077839;28;20224;-66
2022/07/27 03:40:44;;;;;;;3.33;2.60;;;;;;;;;;5084590;28;20599;-67
2022/07/27 03:43:12;;;;;;;4.63;2.50;;;;;;;;;;5083686;28;20257;-67
2022/07/27 03:45:39;;;;;;;2.87;2.40;;;;;;;;;;5079367;28;21913;-67
2022/07/27 03:48:07;;;;;;;3.17;2.70;;;;;;;;;;5096281;28;20284;-66
2022/07/27 03:50:34;;;;;;;2.90;2.70;;;;;;;;;;5089064;28;20207;-66
2022/07/27 03:53:02;;;;;;;3.20;2.90;;;;;;;;;;5093918;28;20743;-66
2022/07/27 03:55:30;;;;;;;5.37;3.00;;;;;;;;;;5070783;28;20232;-66
2022/07/27 03:57:57;;;;;;;4.87;2.77;;;;;;;;;;5069127;28;20220;-66
2022/07/27 04:00:24;;;;;;;4.43;2.77;;;;;;;;;;5070943;28;20200;-66
2022/07/27 04:02:51;;;;;;;2.67;2.47;;;;;;;;;;5074796;28;20200;-66
2022/07/27 04:05:20;;;;;;;4.77;2.83;;;;;;;;;;5076351;28;20230;-66
2022/07/27 04:07:48;;;;;;;3.70;2.63;;;;;;;;;;5077614;28;20282;-67
2022/07/27 04:10:21;;;;;;;2.67;2.40;;;;;;;;;;5075223;28;20211;-66
2022/07/27 04:12:48;;;;;;;5.47;2.90;;;;;;;;;;5078953;28;20303;-65
2022/07/27 04:15:17;;;;;;;2.80;2.40;;;;;;;;;;5094220;28;20710;-67
2022/07/27 04:17:45;;;;;;;3.57;2.60;;;;;;;;;;5079319;28;20364;-66
2022/07/27 04:20:22;;;;;;;4.80;2.67;;;;;;;;;;5087787;28;20200;-67
2022/07/27 04:22:50;;;;;;;2.93;2.70;;;;;;;;;;5079486;28;20223;-67
2022/07/27 04:25:17;;;;;;;3.57;2.77;;;;;;;;;;5076395;28;20209;-65
2022/07/27 04:27:45;;;;;;;3.60;2.70;;;;;;;;;;5077851;28;20227;-64
2022/07/27 04:30:12;;;;;;;3.30;3.00;;;;;;;;;;5082554;28;20211;-66
2022/07/27 04:32:40;;;;;;;4.15;2.83;;;;;;;;;;5083925;28;20200;-67
2022/07/27 04:35:08;;;;;;;4.73;2.90;;;;;;;;;;5106829;27;20223;-64
2022/07/27 04:37:35;;;;;;;6.00;2.87;;;;;;;;;;5083770;27;20877;-65
2022/07/27 04:40:03;;;;;;;5.60;2.90;;;;;;;;;;5077513;28;20204;-66
2022/07/27 04:42:31;;;;;;;4.67;2.80;;;;;;;;;;5079187;28;20243;-64
2022/07/27 04:44:58;;;;;;;4.83;2.90;;;;;;;;;;5083729;28;20294;-67
2022/07/27 04:47:26;;;;;;;5.53;3.37;;;;;;;;;;5081829;28;20235;-67
2022/07/27 04:49:53;;;;;;;4.38;2.83;;;;;;;;;;5093993;28;20573;-66
2022/07/27 04:52:21;;;;;;;3.40;3.10;;;;;;;;;;5092634;27;20679;-67
2022/07/27 04:54:53;;;;;;;3.03;2.73;;;;;;;;;;5092643;28;20211;-66
2022/07/27 04:57:21;;;;;;;3.00;2.80;;;;;;;;;;5108352;27;20227;-66
2022/07/27 04:59:49;;;;;;;4.20;2.83;;;;;;;;;;5103017;28;20204;-66
2022/07/27 05:02:17;;;;;;;6.70;3.90;;;;;;;;;;5086923;28;20208;-66
2022/07/27 05:04:44;;;;;;;7.13;3.35;;;;;;;;;;5075977;28;20200;-67
2022/07/27 05:07:12;;;;;;;5.20;3.60;;;;;;;;;;5115159;27;20228;-66
2022/07/27 05:09:39;;;;;;;3.97;3.08;;;;;;;;;;5084568;28;20204;-66
2022/07/27 05:12:07;;;;;;;4.50;4.05;;;;;;;;;;5110994;27;20262;-66
2022/07/27 05:14:34;;;;;;;4.90;3.83;;;;;;;;;;5092536;27;20208;-67
2022/07/27 05:17:02;;;;;;;3.47;3.17;;;;;;;;;;5089116;28;20274;-66
2022/07/27 05:19:32;;;;;;;7.63;4.10;;;;;;;;;;5097167;27;20222;-66
2022/07/27 05:22:07;;;;;;;4.03;3.30;;;;;;;;;;5091609;28;20295;-67
2022/07/27 05:24:34;;;;;;;4.05;3.60;;;;;;;;;;5088074;27;20200;-66
2022/07/27 05:27:02;;;;;;;3.10;2.80;;;;;;;;;;5091513;28;20220;-67
2022/07/27 05:29:29;;;;;;;3.97;3.00;;;;;;;;;;5089201;27;20207;-67
2022/07/27 05:31:56;;;;;;;3.95;3.17;;;;;;;;;;5087584;28;20201;-67
2022/07/27 05:34:24;;;;;;;4.75;3.35;;;;;;;;;;5089344;27;20747;-67
2022/07/27 05:36:52;;;;;;;4.15;2.92;;;;;;;;;;5088542;27;20705;-66
2022/07/27 05:39:20;;;;;;;4.10;3.00;;;;;;;;;;5086869;28;20192;-66
2022/07/27 05:41:48;;;;;;;5.40;2.80;;;;;;;;;;5090268;27;20208;-66
2022/07/27 05:44:16;;;;;;;7.25;4.10;;;;;;;;;;5085615;28;20570;-66
2022/07/27 05:46:43;;;;;;;5.95;3.63;;;;;;;;;;5089053;27;20251;-66
2022/07/27 05:49:11;;;;;;;5.95;3.83;;;;;;;;;;5107265;27;20651;-66
2022/07/27 05:51:39;;;;;;;3.40;3.10;;;;;;;;;;5090124;27;20203;-67
2022/07/27 05:54:06;;;;;;;5.78;3.92;;;;;;;;;;5089950;28;20196;-64
2022/07/27 05:56:34;;;;;;;7.13;4.35;;;;;;;;;;5095525;27;20263;-67
2022/07/27 05:59:01;;;;;;;5.95;3.55;;;;;;;;;;5089418;28;20200;-66
2022/07/27 06:01:33;;;;;;;3.35;2.90;;;;;;;;;;5104386;27;20230;-66
2022/07/27 06:04:01;;;;;;;7.35;5.68;;;;;;;;;;5091377;28;20291;-66
2022/07/27 06:09:14;;;;;;;3.85;3.45;;;;;;;;;;5110503;27;20208;-66
2022/07/27 06:11:42;;;;;;;4.05;3.65;;;;;;;;;;5088806;27;20203;-66
2022/07/27 06:14:10;;;;;;;3.42;3.13;;;;;;;;;;5120646;27;20254;-66
2022/07/27 06:16:37;;;;;;;4.43;3.05;;;;;;;;;;5089627;27;20736;-67
2022/07/27 06:19:05;;;;;;;4.85;3.42;;;;;;;;;;5092062;28;20238;-66
2022/07/27 06:21:32;;;;;;;3.85;3.45;;;;;;;;;;5094169;28;20294;-66
2022/07/27 06:23:59;;;;;;;5.65;3.00;;;;;;;;;;5094497;27;20199;-66
2022/07/27 06:26:27;;;;;;;3.72;3.40;;;;;;;;;;5090050;28;20223;-66
2022/07/27 06:28:57;;;;;;;3.63;3.33;;;;;;;;;;5089879;27;20214;-66
2022/07/27 06:31:25;;;;;;;4.55;3.60;;;;;;;;;;5088545;28;20211;-66
2022/07/27 06:33:55;;;;;;;4.75;3.63;;;;;;;;;;5097867;28;20619;-66
2022/07/27 06:36:26;;;;;;;3.90;3.47;;;;;;;;;;5092981;27;20231;-66
2022/07/27 06:38:53;;;;;;;6.32;4.15;;;;;;;;;;5095613;28;20215;-66
2022/07/27 06:41:21;;;;;;;3.78;3.47;;;;;;;;;;5080710;28;20246;-66
2022/07/27 06:43:48;;;;;;;6.40;3.70;;;;;;;;;;5098342;28;20742;-66
2022/07/27 06:46:16;;;;;;;5.35;3.55;;;;;;;;;;5088821;27;20208;-66
2022/07/27 06:48:43;;;;;;;5.07;4.32;;;;;;;;;;5089019;28;20215;-65
2022/07/27 06:51:10;;;;;;;6.03;3.95;;;;;;;;;;5087219;28;20200;-66
2022/07/27 06:53:38;;;;;;;8.07;3.88;;;;;;;;;;5094403;28;20667;-65
2022/07/27 06:56:07;;;;;;;3.70;3.40;;;;;;;;;;5088391;28;20224;-65
2022/07/27 06:58:36;;;;;;;4.80;3.50;;;;;;;;;;5081910;28;20200;-66
2022/07/27 07:01:04;;;;;;;3.53;3.20;;;;;;;;;;5096702;28;20623;-66
2022/07/27 07:03:31;;;;;;;3.83;3.40;;;;;;;;;;5097202;28;20947;-68
2022/07/27 07:05:59;;;;;;;3.95;3.45;;;;;;;;;;5085864;28;20208;-65
2022/07/27 07:08:26;;;;;;;5.72;3.60;;;;;;;;;;5082007;28;20220;-65
2022/07/27 07:10:54;;;;;;;3.65;3.35;;;;;;;;;;5101460;28;20219;-68
2022/07/27 07:13:22;;;;;;;5.45;3.63;;;;;;;;;;5109650;27;20571;-67
2022/07/27 07:15:50;;;;;;;3.80;3.47;;;;;;;;;;5077603;28;20620;-65
2022/07/27 07:18:17;;;;;;;5.15;3.22;;;;;;;;;;5080592;28;20228;-67
2022/07/27 07:20:44;;;;;;;5.55;3.72;;;;;;;;;;5087883;28;20200;-67
2022/07/27 07:23:12;;;;;;;4.65;3.70;;;;;;;;;;5099197;28;20193;-65
2022/07/27 07:25:40;;;;;;;6.43;3.78;;;;;;;;;;5077572;28;20192;-67
2022/07/27 07:28:07;;;;;;;4.13;3.70;;;;;;;;;;5098418;27;20219;-67
2022/07/27 07:30:35;;;;;;;4.45;3.90;;;;;;;;;;5084314;28;20204;-67
2022/07/27 07:33:02;;;;;;;5.63;3.67;;;;;;;;;;5089931;28;20196;-67
2022/07/27 07:35:30;;;;;;;4.38;3.97;;;;;;;;;;5073985;28;20702;-65
2022/07/27 07:37:57;;;;;;;5.15;4.47;;;;;;;;;;5084393;28;20220;-66
2022/07/27 07:40:25;;;;;;;7.55;4.35;;;;;;;;;;5082360;28;20230;-65
2022/07/27 07:43:11;;;;;;;8.05;4.70;;;;;;;;;;5090418;28;20200;-66
2022/07/27 07:45:39;;;;;;;7.63;4.75;;;;;;;;;;5087024;28;20212;-65
2022/07/27 07:48:17;;;;;;;5.25;4.63;;;;;;;;;;5090326;28;20219;-66
2022/07/27 07:50:45;;;;;;;5.82;4.78;;;;;;;;;;5087845;28;20612;-65
2022/07/27 07:53:18;;;;;;;6.10;4.50;;;;;;;;;;5086943;28;20238;-68
2022/07/27 07:55:46;;;;;;;6.05;5.15;;;;;;;;;;5088330;28;20196;-66
2022/07/27 07:58:13;;;;;;;6.97;4.85;;;;;;;;;;5087229;28;20500;-65
2022/07/27 08:00:42;;;;;;;7.00;4.40;;;;;;;;;;5108070;28;20203;-65
2022/07/27 08:03:10;;;;;;;7.13;4.35;;;;;;;;;;5093553;28;20248;-65
2022/07/27 08:05:37;;;;;;;7.75;4.20;;;;;;;;;;5090804;28;20878;-66
2022/07/27 08:08:05;;;;;;;6.07;4.15;;;;;;;;;;5089328;28;20223;-65
2022/07/27 08:10:33;;;;;;;8.25;4.00;;;;;;;;;;5090290;27;20212;-67
2022/07/27 08:13:00;;;;;;;7.25;4.20;;;;;;;;;;5104541;27;20733;-65
2022/07/27 08:15:29;;;;;;;4.65;4.03;;;;;;;;;;5092687;28;20215;-66
2022/07/27 08:18:03;;;;;;;4.10;3.60;;;;;;;;;;5086645;27;23100;-67
2022/07/27 08:20:30;;;;;;;5.43;4.00;;;;;;;;;;5093887;27;20213;-66
2022/07/27 08:22:58;;;;;;;5.97;4.25;;;;;;;;;;5096446;27;20199;-65
2022/07/27 08:25:25;;;;;;;6.60;4.00;;;;;;;;;;5090350;28;20215;-65
2022/07/27 08:27:52;;;;;;;8.77;3.22;;;;;;;;;;5090002;27;20316;-67
2022/07/27 08:30:22;;;;;;;4.85;4.35;;;;;;;;;;5097019;27;20574;-68
2022/07/27 08:32:56;;;;;;;5.80;3.90;;;;;;;;;;5088214;28;20206;-67
2022/07/27 08:35:23;;;;;;;3.35;3.00;;;;;;;;;;5086783;27;20208;-65
2022/07/27 08:37:51;;;;;;;6.07;4.03;;;;;;;;;;5087005;27;20239;-66
2022/07/27 08:40:19;;;;;;;5.45;3.08;;;;;;;;;;5092675;27;20663;-67
2022/07/27 08:43:07;;;;;;;6.35;3.35;;;;;;;;;;5090356;27;20258;-65
2022/07/27 08:45:36;;;;;;;5.40;3.42;;;;;;;;;;5081134;27;20338;-65
2022/07/27 08:48:04;;;;;;;7.25;3.80;;;;;;;;;;5103192;27;20633;-67
2022/07/27 08:50:33;;;;;;;4.25;3.72;;;;;;;;;;5093821;28;20203;-65
2022/07/27 08:53:06;;;;;;;7.57;3.65;;;;;;;;;;5089444;28;20204;-65
2022/07/27 08:55:40;;;;;;;3.85;3.28;;;;;;;;;;5086181;28;20203;-67
2022/07/27 08:58:08;;;;;;;3.47;3.17;;;;;;;;;;5097416;28;20235;-70
2022/07/27 09:00:39;;;;;;;4.40;3.38;;;;;;;;;;5095496;27;20235;-68
2022/07/27 09:03:06;;;;;;;3.65;3.33;;;;;;;;;;5093132;28;20205;-66
2022/07/27 09:05:42;;;;;;;6.72;4.38;;;;;;;;;;5096073;27;20573;-67
2022/07/27 09:08:11;;;;;;;4.38;3.25;;;;;;;;;;5087842;27;20228;-66
2022/07/27 09:10:39;;;;;;;3.40;3.10;;;;;;;;;;5106211;27;20223;-67
2022/07/27 09:13:36;;;;;;;3.55;2.67;;;;;;;;;;5107302;27;20265;-66
2022/07/27 09:16:04;;;;;;;6.15;2.90;;;;;;;;;;5075950;28;20269;-66
2022/07/27 09:18:48;;;;;;;3.63;3.10;;;;;;;;;;5093342;27;20323;-67
2022/07/27 09:21:15;;;;;;;3.53;3.22;;;;;;;;;;5086367;28;20211;-66
2022/07/27 09:24:03;;;;;;;5.10;3.05;;;;;;;;;;5085362;27;20694;-67
2022/07/27 09:26:49;;;;;;;4.40;2.63;;;;;;;;;;5116776;27;20311;-66
2022/07/27 09:29:16;;;;;;;2.97;2.67;;;;;;;;;;5090358;28;20272;-66
2022/07/27 09:31:45;;;;;;;3.45;2.80;;;;;;;;;;5086935;28;20484;-66
2022/07/27 09:34:25;;;;;;;4.05;2.80;;;;;;;;;;5091157;27;20307;-66
2022/07/27 09:36:54;;;;;;;3.15;2.58;;;;;;;;;;5086637;28;20293;-66
2022/07/27 09:39:23;;;;;;;2.95;2.38;;;;;;;;;;5090788;28;20204;-66
2022/07/27 09:41:54;;;;;;;3.70;2.20;;;;;;;;;;5084798;28;20583;-65
2022/07/27 09:44:41;;;;;;;3.60;2.30;;;;;;;;;;5091657;28;20207;-67
2022/07/27 09:47:21;;;;;;;3.20;2.35;;;;;;;;;;5089380;27;20277;-65
2022/07/27 09:49:48;;;;;;;2.80;2.05;;;;;;;;;;5089360;28;20212;-64
2022/07/27 09:52:30;;;;;;;2.40;2.00;;;;;;;;;;5089751;28;20207;-65
2022/07/27 09:55:05;;;;;;;2.83;2.22;;;;;;;;;;5084302;28;20681;-67
2022/07/27 09:57:52;;;;;;;3.58;2.45;;;;;;;;;;5086441;28;20236;-66
2022/07/27 10:00:19;;;;;;;2.88;2.67;;;;;;;;;;5083611;27;20200;-67
2022/07/27 10:02:49;;;;;;;3.08;2.60;;;;;;;;;;5088026;28;20208;-67
2022/07/27 10:05:20;;;;;;;3.33;2.70;;;;;;;;;;5090774;28;20200;-66
2022/07/27 10:07:48;;;;;;;2.65;2.28;;;;;;;;;;5085881;27;20263;-66
2022/07/27 10:10:15;;;;;;;3.10;2.67;;;;;;;;;;5088863;27;20212;-65
2022/07/27 10:12:43;;;;;;;3.85;2.33;;;;;;;;;;5085417;28;20682;-67
2022/07/27 10:15:15;;;;;;;2.80;1.92;;;;;;;;;;5083292;28;20219;-66
2022/07/27 10:17:44;;;;;;;2.45;2.00;;;;;;;;;;5097204;27;20700;-67
2022/07/27 10:20:12;;;;;;;3.20;2.10;;;;;;;;;;5083246;27;20779;-67
2022/07/27 10:22:57;;;;;;;3.15;2.55;;;;;;;;;;5084924;28;20250;-67
2022/07/27 10:25:25;;;;;;;3.50;2.60;;;;;;;;;;5094208;28;20204;-67
2022/07/27 10:28:15;;;;;;;2.80;2.50;;;;;;;;;;5109825;27;20319;-67
2022/07/27 10:30:45;;;;;;;2.47;2.20;;;;;;;;;;5103278;27;20597;-66
2022/07/27 10:33:53;;;;;;;2.33;1.80;;;;;;;;;;5073683;28;20208;-68
2022/07/27 10:36:23;;;;;;;4.57;2.30;;;;;;;;;;5031477;28;20211;-66
2022/07/27 10:38:57;;;;;;;6.20;2.50;;;;;;;;;;5074338;28;20204;-67
2022/07/27 10:41:24;;;;;;;2.53;2.33;;;;;;;;;;5079239;28;20241;-68
2022/07/27 10:44:10;;;;;;;3.35;3.00;;;;;;;;;;5074564;28;20208;-65
2022/07/27 10:46:42;;;;;;;3.13;2.60;;;;;;;;;;5101386;28;20235;-67
2022/07/27 10:49:23;;;;;;;3.67;2.70;;;;;;;;;;5105384;27;20209;-67
2022/07/27 10:51:54;;;;;;;2.97;2.67;;;;;;;;;;5082821;28;20199;-67
2022/07/27 10:54:25;;;;;;;2.78;2.58;;;;;;;;;;5101805;27;20589;-68
2022/07/27 10:56:56;;;;;;;3.17;2.38;;;;;;;;;;5085110;28;20319;-64
2022/07/27 10:59:39;;;;;;;2.50;2.30;;;;;;;;;;5079682;28;20204;-64
2022/07/27 11:02:45;;;;;;;4.35;2.60;;;;;;;;;;5085873;28;20242;-66
2022/07/27 11:05:13;;;;;;;2.85;2.40;;;;;;;;;;5079951;28;20241;-66
2022/07/27 11:08:01;;;;;;;8.00;2.50;;;;;;;;;;5090562;27;20215;-66
2022/07/27 11:10:49;;;;;;;2.83;2.22;;;;;;;;;;5090979;28;20258;-66
2022/07/27 11:13:20;;;;;;;2.45;2.25;;;;;;;;;;5102602;27;20211;-68
2022/07/27 11:16:01;;;;;;;3.45;2.08;;;;;;;;;;5086611;28;20208;-66
2022/07/27 11:18:56;;;;;;;4.18;2.00;;;;;;;;;;5088697;27;20204;-66
2022/07/27 11:21:24;;;;;;;2.00;1.90;;;;;;;;;;5083462;28;20208;-66
2022/07/27 11:24:19;;;;;;;2.95;2.25;;;;;;;;;;5091582;28;20258;-66
2022/07/27 11:26:50;;;;;;;2.22;2.08;;;;;;;;;;5083151;27;20220;-66
2022/07/27 11:29:21;;;;;;;2.40;2.20;;;;;;;;;;5091282;28;20585;-65
2022/07/27 11:31:50;;;;;;;1.90;1.80;;;;;;;;;;5084139;28;20204;-66
2022/07/27 11:34:30;;;;;;;3.20;1.95;;;;;;;;;;5087458;28;20253;-66
2022/07/27 11:37:01;;;;;;;2.33;2.13;;;;;;;;;;5074280;28;20228;-66
2022/07/27 11:39:33;;;;;;;2.88;2.05;;;;;;;;;;5083174;28;20270;-66
2022/07/27 11:42:20;;;;;;;2.72;2.00;;;;;;;;;;5088553;28;20231;-66
2022/07/27 11:44:51;;;;;;;2.03;1.77;;;;;;;;;;5082600;28;20243;-65
2022/07/27 11:47:22;;;;;;;2.20;2.10;;;;;;;;;;5089125;28;20230;-66
2022/07/27 11:49:51;;;;;;;2.30;2.15;;;;;;;;;;5101927;28;20273;-66
2022/07/27 11:52:18;;;;;;;5.80;2.20;;;;;;;;;;5071579;28;20210;-65
2022/07/27 11:54:50;;;;;;;3.90;3.50;;;;;;;;;;5100747;28;20204;-65
2022/07/27 11:57:19;;;;;;;3.80;2.75;;;;;;;;;;5087201;28;20818;-66
2022/07/27 11:59:46;;;;;;;4.10;2.40;;;;;;;;;;5080787;28;20208;-66
2022/07/27 12:02:18;;;;;;;2.35;2.15;;;;;;;;;;5087088;28;20258;-65
2022/07/27 12:04:48;;;;;;;3.80;2.30;;;;;;;;;;5099321;28;20201;-66
2022/07/27 12:07:20;;;;;;;3.22;2.20;;;;;;;;;;5085619;28;20227;-65
2022/07/27 12:09:53;;;;;;;2.50;2.30;;;;;;;;;;5089247;28;20235;-66
2022/07/27 12:12:22;;;;;;;3.15;1.95;;;;;;;;;;5093117;28;20276;-66
2022/07/27 12:14:49;;;;;;;2.28;2.08;;;;;;;;;;5083768;28;20688;-66
2022/07/27 12:17:37;;;;;;;4.18;2.67;;;;;;;;;;5082884;28;20235;-66
2022/07/27 12:20:19;;;;;;;6.63;2.28;;;;;;;;;;5096050;28;20566;-66
2022/07/27 12:22:49;;;;;;;2.45;1.75;;;;;;;;;;5099536;28;20576;-66
2022/07/27 12:25:16;;;;;;;2.47;2.00;;;;;;;;;;5098401;28;20203;-67
2022/07/27 12:27:53;;;;;;;2.80;2.60;;;;;;;;;;5099401;27;20750;-66
2022/07/27 12:30:28;;;;;;;5.22;2.40;;;;;;;;;;5100382;28;20680;-66
2022/07/27 12:32:55;;;;;;;3.58;2.60;;;;;;;;;;5104184;27;20267;-65
2022/07/27 12:35:27;;;;;;;3.20;2.90;;;;;;;;;;5104623;28;20200;-66
2022/07/27 12:38:05;;;;;;;5.63;2.65;;;;;;;;;;5122251;27;20227;-65
2022/07/27 12:40:42;;;;;;;2.80;2.60;;;;;;;;;;5099629;27;20200;-66
2022/07/27 12:43:09;;;;;;;5.15;2.55;;;;;;;;;;5104309;28;20192;-66
2022/07/27 12:45:37;;;;;;;3.60;2.92;;;;;;;;;;5127163;27;20721;-66
2022/07/27 12:48:05;;;;;;;3.55;2.63;;;;;;;;;;5098203;27;20553;-66
2022/07/27 12:50:32;;;;;;;2.83;2.58;;;;;;;;;;5096306;27;20577;-66
2022/07/27 12:53:00;;;;;;;4.97;2.70;;;;;;;;;;5106482;27;20255;-66
2022/07/27 12:55:28;;;;;;;2.75;2.55;;;;;;;;;;5103216;27;20207;-66
2022/07/27 12:57:55;;;;;;;3.85;2.35;;;;;;;;;;5105868;27;20230;-66
2022/07/27 13:00:24;;;;;;;2.67;2.38;;;;;;;;;;5102597;27;21018;-66
2022/07/27 13:03:00;;;;;;;2.63;2.25;;;;;;;;;;5108631;27;20234;-66
2022/07/27 13:05:27;;;;;;;2.38;2.10;;;;;;;;;;5124173;27;20203;-66
2022/07/27 13:07:55;;;;;;;2.38;2.03;;;;;;;;;;5109803;27;20232;-66
2022/07/27 13:10:22;;;;;;;2.42;2.20;;;;;;;;;;5107892;27;20206;-65
2022/07/27 13:12:51;;;;;;;3.83;2.40;;;;;;;;;;5103894;27;20195;-66
2022/07/27 13:15:18;;;;;;;3.47;2.15;;;;;;;;;;5107443;27;20204;-66
2022/07/27 13:17:46;;;;;;;2.40;2.20;;;;;;;;;;5106553;27;20287;-66
2022/07/27 13:20:15;;;;;;;2.67;2.33;;;;;;;;;;5106488;27;20293;-65
2022/07/27 13:22:43;;;;;;;3.30;2.40;;;;;;;;;;5102925;27;20204;-65
2022/07/27 13:25:11;;;;;;;2.92;2.25;;;;;;;;;;5101779;27;20226;-66
2022/07/27 13:27:43;;;;;;;2.95;2.40;;;;;;;;;;5096395;27;20284;-66
2022/07/27 13:30:12;;;;;;;2.55;2.15;;;;;;;;;;5104438;27;20252;-66
2022/07/27 13:32:43;;;;;;;2.92;2.30;;;;;;;;;;5108673;27;20211;-66
2022/07/27 13:35:11;;;;;;;4.13;3.20;;;;;;;;;;5112050;27;20214;-66
2022/07/27 13:37:39;;;;;;;4.57;2.10;;;;;;;;;;5104501;27;20773;-66
2022/07/27 13:40:07;;;;;;;4.32;2.60;;;;;;;;;;5102200;27;20210;-65
2022/07/27 13:42:35;;;;;;;2.40;2.20;;;;;;;;;;5103151;27;20202;-66
2022/07/27 13:45:03;;;;;;;2.83;2.28;;;;;;;;;;5106127;27;20207;-66
2022/07/27 13:47:37;;;;;;;3.83;2.50;;;;;;;;;;5118513;27;20326;-66
2022/07/27 13:50:05;;;;;;;3.60;2.22;;;;;;;;;;5103578;27;20542;-66
2022/07/27 13:52:32;;;;;;;2.30;2.10;;;;;;;;;;5108644;27;20256;-66
2022/07/27 13:55:00;;;;;;;2.67;2.10;;;;;;;;;;5123425;27;20248;-66
2022/07/27 13:57:27;;;;;;;2.65;2.45;;;;;;;;;;5105875;27;20231;-66
2022/07/27 13:59:58;;;;;;;2.10;1.92;;;;;;;;;;5102314;27;20191;-66
2022/07/27 14:02:25;;;;;;;2.83;2.30;;;;;;;;;;5109340;27;20195;-66
2022/07/27 14:04:53;;;;;;;2.25;2.00;;;;;;;;;;5105419;27;20237;-64
2022/07/27 14:07:20;;;;;;;3.72;2.00;;;;;;;;;;5110419;27;20216;-66
2022/07/27 14:12:40;;;;;;;2.45;2.00;;;;;;;;;;5123211;27;20218;-65
2022/07/27 14:15:07;;;;;;;2.38;2.13;;;;;;;;;;5107238;27;20208;-66
2022/07/27 14:17:36;;;;;;;2.35;2.13;;;;;;;;;;5106421;27;20267;-66
2022/07/27 14:20:04;;;;;;;4.10;1.95;;;;;;;;;;5105830;27;20195;-66
2022/07/27 14:22:32;;;;;;;4.15;2.00;;;;;;;;;;5103244;27;20204;-66
2022/07/27 14:25:00;;;;;;;3.03;1.90;;;;;;;;;;5108793;27;20199;-66
2022/07/27 14:27:27;;;;;;;2.40;2.20;;;;;;;;;;5110324;27;20270;-66
2022/07/27 14:30:05;;;;;;;3.15;2.05;;;;;;;;;;5107678;27;20196;-65
2022/07/27 14:32:33;;;;;;;2.10;1.90;;;;;;;;;;5098294;27;20219;-66
2022/07/27 14:35:00;;;;;;;2.92;1.95;;;;;;;;;;5104258;27;20249;-65
2022/07/27 14:37:28;;;;;;;3.47;2.15;;;;;;;;;;5104250;27;20642;-66
2022/07/27 14:39:55;;;;;;;3.10;2.20;;;;;;;;;;5107799;27;20669;-65
2022/07/27 14:42:23;;;;;;;2.17;2.05;;;;;;;;;;5102097;28;20227;-65
2022/07/27 14:44:51;;;;;;;2.20;2.00;;;;;;;;;;5109974;27;21373;-65
2022/07/27 14:47:18;;;;;;;2.17;2.00;;;;;;;;;;5111975;27;20280;-65
2022/07/27 14:49:46;;;;;;;2.40;2.10;;;;;;;;;;5092321;27;20203;-65
2022/07/27 14:52:14;;;;;;;2.47;2.08;;;;;;;;;;5102848;27;20669;-65
2022/07/27 14:54:42;;;;;;;5.00;2.10;;;;;;;;;;5099261;27;20569;-65
2022/07/27 14:57:10;;;;;;;2.03;1.92;;;;;;;;;;5103932;27;20211;-65
2022/07/27 14:59:37;;;;;;;2.60;2.22;;;;;;;;;;5118933;27;20236;-65
2022/07/27 15:02:05;;;;;;;3.85;2.30;;;;;;;;;;5104436;27;20196;-65
2022/07/27 15:04:33;;;;;;;3.38;1.80;;;;;;;;;;5103900;27;20230;-65
2022/07/27 15:07:00;;;;;;;4.10;2.20;;;;;;;;;;5104442;27;20265;-65